Time;durP1;ratioP1;P1;durP2;ratioP2;P2;SDS_P1;SDS_P2;PMS_P1;PMS_P2;Temp;Humidity;BMP_temperature;BMP_pressure;BME280_temperature;BME280_humidity;BME280_pressure;Samples;Min_cycle;Max_cycle;Signal;HPM_P1;HPM_P2
2024/03/18 00:00:00;;;;;;;1.70;1.10;;;;;;;2.69;66.40;99141.59;226823;1269;22552;-77
2024/03/18 00:05:02;;;;;;;3.00;1.10;;;;;;;2.70;66.54;99135.94;226771;1274;22575;-78
2024/03/18 00:10:09;;;;;;;1.90;1.20;;;;;;;2.70;66.65;99134.93;226791;1274;22638;-78
2024/03/18 00:15:13;;;;;;;1.60;1.10;;;;;;;2.69;66.81;99125.09;226687;1274;22648;-78
2024/03/18 00:20:15;;;;;;;1.50;1.40;;;;;;;2.68;66.89;99123.97;226817;1272;22523;-78
2024/03/18 00:25:18;;;;;;;1.90;1.10;;;;;;;2.62;66.85;99121.48;226764;1274;22548;-78
2024/03/18 00:30:20;;;;;;;3.40;1.50;;;;;;;2.59;67.07;99121.59;226944;1271;22535;-77
2024/03/18 00:35:22;;;;;;;1.40;1.10;;;;;;;2.56;66.94;99122.02;226894;1271;22560;-77
2024/03/18 00:40:24;;;;;;;2.20;1.00;;;;;;;2.52;66.81;99123.58;226671;1271;22547;-77
2024/03/18 00:45:25;;;;;;;2.40;1.10;;;;;;;2.48;66.84;99122.19;226658;1270;23419;-78
2024/03/18 00:50:27;;;;;;;1.30;1.00;;;;;;;2.46;67.02;99115.67;226767;1273;22558;-76
2024/03/18 00:55:33;;;;;;;1.90;0.80;;;;;;;2.45;66.86;99110.25;226751;1274;22550;-77
2024/03/18 01:00:35;;;;;;;1.90;1.30;;;;;;;2.44;67.14;99109.61;226721;1272;25118;-78
2024/03/18 01:05:37;;;;;;;2.00;1.00;;;;;;;2.43;67.15;99103.48;226774;1271;22600;-77
2024/03/18 01:10:39;;;;;;;1.70;1.10;;;;;;;2.37;66.88;99096.80;226697;1274;23276;-77
2024/03/18 01:15:42;;;;;;;2.00;1.20;;;;;;;2.32;67.00;99091.38;226836;1269;22546;-76
2024/03/18 01:20:44;;;;;;;2.70;1.40;;;;;;;2.26;66.98;99088.36;226899;1272;22648;-76
2024/03/18 01:25:46;;;;;;;1.80;1.40;;;;;;;2.23;67.17;99089.52;226806;1274;22560;-77
2024/03/18 01:30:49;;;;;;;2.70;1.60;;;;;;;2.23;67.42;99088.16;226636;1274;22564;-77
2024/03/18 01:35:51;;;;;;;2.10;1.30;;;;;;;2.21;67.50;99077.34;226611;1274;23646;-76
2024/03/18 01:40:54;;;;;;;2.30;1.50;;;;;;;2.19;67.60;99084.79;226658;1274;22539;-76
2024/03/18 01:45:56;;;;;;;2.50;1.50;;;;;;;2.17;67.59;99086.21;226677;1274;22914;-76
2024/03/18 01:50:58;;;;;;;2.40;1.70;;;;;;;2.16;67.72;99081.27;226824;1251;22632;-77
2024/03/18 01:56:01;;;;;;;3.30;1.80;;;;;;;2.14;67.84;99081.25;226843;1274;24274;-77
2024/03/18 02:01:03;;;;;;;5.50;1.80;;;;;;;2.10;68.09;99081.16;226756;1272;22527;-78
2024/03/18 02:06:06;;;;;;;2.40;1.80;;;;;;;2.10;68.22;99083.25;226802;1274;22527;-76
2024/03/18 02:11:09;;;;;;;1.80;1.40;;;;;;;2.11;68.29;99080.07;226673;1274;22537;-76
2024/03/18 02:16:11;;;;;;;2.40;1.60;;;;;;;2.10;68.47;99077.02;226649;1274;22554;-76
2024/03/18 02:21:13;;;;;;;2.70;1.90;;;;;;;2.08;68.42;99073.90;226795;1274;22549;-76
2024/03/18 02:26:15;;;;;;;3.20;1.80;;;;;;;2.06;68.53;99074.22;226619;1274;22551;-76
2024/03/18 02:31:17;;;;;;;3.10;1.70;;;;;;;2.06;68.71;99073.77;226765;1274;22531;-77
2024/03/18 02:36:19;;;;;;;2.10;1.70;;;;;;;2.04;68.67;99073.71;226599;1274;25496;-77
2024/03/18 02:41:21;;;;;;;2.50;1.80;;;;;;;2.03;68.99;99078.85;226535;1275;234791;-78
2024/03/18 02:46:23;;;;;;;4.10;2.20;;;;;;;2.00;69.04;99074.39;226519;1275;22549;-77
2024/03/18 02:51:25;;;;;;;4.20;2.50;;;;;;;1.96;69.23;99074.73;226620;1275;22616;-77
2024/03/18 02:56:27;;;;;;;4.00;2.40;;;;;;;1.94;69.47;99074.05;226752;1275;22542;-77
2024/03/18 03:01:28;;;;;;;4.20;2.60;;;;;;;1.93;69.54;99077.57;226677;1275;22611;-77
2024/03/18 03:06:30;;;;;;;3.30;2.70;;;;;;;1.87;69.56;99076.35;226694;1271;22630;-76
2024/03/18 03:11:32;;;;;;;3.50;2.20;;;;;;;1.78;69.39;99079.54;226607;1275;22550;-76
2024/03/18 03:16:35;;;;;;;3.90;2.60;;;;;;;1.70;69.46;99082.77;226579;1274;25329;-77
2024/03/18 03:21:37;;;;;;;2.00;1.70;;;;;;;1.64;69.52;99077.73;226763;1272;22550;-77
2024/03/18 03:26:38;;;;;;;2.00;1.80;;;;;;;1.56;69.38;99078.39;226725;1272;22564;-77
2024/03/18 03:31:42;;;;;;;2.80;1.90;;;;;;;1.50;69.42;99077.15;226574;1272;24306;-76
2024/03/18 03:36:44;;;;;;;2.80;2.10;;;;;;;1.44;69.55;99081.45;226727;1271;22543;-77
2024/03/18 03:41:46;;;;;;;2.80;2.50;;;;;;;1.37;69.52;99078.16;226691;1270;23091;-77
2024/03/18 03:46:50;;;;;;;2.60;2.40;;;;;;;1.32;69.58;99080.79;226685;1272;22552;-77
2024/03/18 03:51:52;;;;;;;3.30;2.80;;;;;;;1.29;69.87;99082.66;226702;1274;22538;-76
2024/03/18 03:56:54;;;;;;;2.90;2.50;;;;;;;1.24;70.10;99086.27;226584;1274;24793;-76
2024/03/18 04:01:56;;;;;;;2.50;2.20;;;;;;;1.21;70.07;99081.34;226603;1274;23692;-76
2024/03/18 04:07:00;;;;;;;3.50;2.80;;;;;;;1.19;70.05;99072.52;226815;1272;24238;-76
2024/03/18 04:12:02;;;;;;;2.60;2.20;;;;;;;1.14;70.17;99074.13;226744;1271;25361;-76
2024/03/18 04:17:10;;;;;;;3.30;2.40;;;;;;;1.05;70.29;99081.10;226643;1274;22571;-76
2024/03/18 04:22:12;;;;;;;4.40;2.40;;;;;;;0.88;70.19;99080.17;226515;1274;22536;-76
2024/03/18 04:27:14;;;;;;;2.60;2.40;;;;;;;0.67;70.02;99080.91;226683;1272;22559;-76
2024/03/18 04:32:16;;;;;;;3.10;2.10;;;;;;;0.49;70.12;99087.35;226570;1274;25986;-76
2024/03/18 04:37:18;;;;;;;2.60;2.40;;;;;;;0.32;70.50;99083.27;226600;1274;22569;-76
2024/03/18 04:42:20;;;;;;;1.70;1.50;;;;;;;0.16;71.08;99086.95;226585;1274;24222;-76
2024/03/18 04:47:22;;;;;;;2.00;1.70;;;;;;;0.01;71.08;99088.95;226712;1274;22597;-76
2024/03/18 04:52:24;;;;;;;2.40;1.90;;;;;;;-0.13;71.22;99093.55;226644;1274;24216;-75
2024/03/18 04:57:26;;;;;;;3.10;2.30;;;;;;;-0.24;71.41;99099.27;226518;1275;24926;-75
2024/03/18 05:02:28;;;;;;;3.10;2.20;;;;;;;-0.34;71.66;99100.34;226762;1271;24260;-75
2024/03/18 05:07:30;;;;;;;3.40;2.40;;;;;;;-0.42;71.94;99101.05;226671;1274;24168;-76
2024/03/18 05:12:33;;;;;;;2.80;2.30;;;;;;;-0.47;72.37;99099.40;226703;1274;22560;-75
2024/03/18 05:17:35;;;;;;;3.80;2.40;;;;;;;-0.52;72.22;99101.30;226573;1275;22546;-76
2024/03/18 05:22:37;;;;;;;3.10;2.60;;;;;;;-0.54;72.56;99105.91;226672;1272;22554;-77
2024/03/18 05:27:39;;;;;;;2.50;2.30;;;;;;;-0.52;73.10;99107.02;226686;1274;22560;-77
2024/03/18 05:32:42;;;;;;;3.30;2.60;;;;;;;-0.48;72.94;99104.77;226524;1274;22548;-77
2024/03/18 05:37:44;;;;;;;6.60;2.70;;;;;;;-0.39;73.53;99101.18;226593;1275;22618;-76
2024/03/18 05:42:46;;;;;;;4.30;2.80;;;;;;;-0.30;73.41;99098.98;226560;1274;22576;-76
2024/03/18 05:47:48;;;;;;;4.20;3.80;;;;;;;-0.24;73.51;99101.65;226592;1274;22608;-76
2024/03/18 05:52:50;;;;;;;3.40;3.10;;;;;;;-0.19;73.42;99104.95;226766;1275;25427;-76
2024/03/18 05:57:54;;;;;;;4.70;3.40;;;;;;;-0.14;73.29;99102.67;226505;1275;22685;-76
2024/03/18 06:02:56;;;;;;;4.30;3.50;;;;;;;-0.09;73.59;99102.93;226705;1271;22535;-76
2024/03/18 06:07:58;;;;;;;4.40;3.60;;;;;;;-0.00;73.74;99105.25;226600;1253;22608;-75
2024/03/18 06:13:00;;;;;;;6.50;4.00;;;;;;;0.10;73.76;99111.48;226697;1272;22542;-76
2024/03/18 06:18:02;;;;;;;3.90;3.50;;;;;;;0.16;73.74;99110.30;226442;1274;22552;-76
2024/03/18 06:23:04;;;;;;;6.30;3.90;;;;;;;0.22;73.78;99109.47;226674;1272;24259;-77
2024/03/18 06:28:06;;;;;;;4.40;3.60;;;;;;;0.28;73.60;99117.16;226752;1265;22557;-75
2024/03/18 06:33:08;;;;;;;5.90;3.90;;;;;;;0.37;73.86;99115.98;226615;1275;23664;-75
2024/03/18 06:38:10;;;;;;;4.40;3.60;;;;;;;0.45;73.57;99113.81;226697;1271;22588;-77
2024/03/18 06:43:13;;;;;;;5.20;3.60;;;;;;;0.54;73.30;99115.23;226575;1275;22548;-77
2024/03/18 06:48:15;;;;;;;4.90;3.50;;;;;;;0.60;73.24;99116.34;226521;1275;22549;-80
2024/03/18 06:53:17;;;;;;;4.40;3.80;;;;;;;0.70;73.53;99113.46;226574;1275;22531;-79
2024/03/18 06:58:21;;;;;;;3.50;3.20;;;;;;;0.80;73.33;99110.44;226619;1269;22538;-80
2024/03/18 07:03:23;;;;;;;5.00;3.10;;;;;;;0.77;72.95;99109.81;226563;1269;22573;-78
2024/03/18 07:08:25;;;;;;;3.60;3.00;;;;;;;0.76;72.96;99108.84;226481;1253;22561;-79
2024/03/18 07:13:28;;;;;;;5.40;3.80;;;;;;;0.85;73.23;99107.13;226425;1266;22648;-79
2024/03/18 07:18:30;;;;;;;5.20;4.10;;;;;;;0.98;72.87;99103.61;226456;1270;22583;-77
2024/03/18 07:23:31;;;;;;;4.70;4.00;;;;;;;1.24;72.55;99104.02;226479;1259;22563;-77
2024/03/18 07:28:34;;;;;;;6.70;4.10;;;;;;;1.56;72.03;99103.23;226704;1271;22582;-77
2024/03/18 07:33:35;;;;;;;3.60;3.20;;;;;;;1.66;71.60;99104.29;226658;1269;22595;-78
2024/03/18 07:38:37;;;;;;;3.80;3.40;;;;;;;1.70;71.22;99103.92;226788;1266;26383;-79
2024/03/18 07:43:44;;;;;;;4.50;2.90;;;;;;;1.68;70.81;99104.65;226822;1267;22554;-79
2024/03/18 07:48:47;;;;;;;4.50;2.40;;;;;;;1.72;70.78;99106.06;226792;1270;25327;-79
2024/03/18 07:53:49;;;;;;;4.60;2.80;;;;;;;1.87;70.68;99104.02;226835;1273;22970;-79
2024/03/18 07:58:51;;;;;;;4.90;2.00;;;;;;;2.00;69.95;99098.05;226596;1272;25345;-77
2024/03/18 08:03:53;;;;;;;2.50;1.60;;;;;;;2.15;69.76;99096.23;226578;1270;22715;-75
2024/03/18 08:08:55;;;;;;;2.10;1.80;;;;;;;2.45;69.42;99089.86;226329;1263;22587;-77
2024/03/18 08:13:56;;;;;;;3.20;2.00;;;;;;;2.87;69.03;99084.21;226516;1263;22588;-77
2024/03/18 08:18:58;;;;;;;3.60;2.00;;;;;;;3.13;68.07;99082.83;226353;1274;22478;-78
2024/03/18 08:24:01;;;;;;;2.00;1.80;;;;;;;3.28;67.63;99083.06;226439;1256;22778;-78
2024/03/18 08:29:03;;;;;;;3.90;2.00;;;;;;;3.47;67.28;99079.66;226426;1262;22536;-77
2024/03/18 08:34:05;;;;;;;3.60;1.90;;;;;;;3.52;66.37;99070.10;226389;1263;22566;-77
2024/03/18 08:39:07;;;;;;;3.20;1.90;;;;;;;3.47;65.83;99071.14;226569;1266;22623;-77
2024/03/18 08:44:09;;;;;;;2.70;1.60;;;;;;;3.42;65.40;99071.05;226285;1266;22575;-77
2024/03/18 08:49:15;;;;;;;2.00;1.50;;;;;;;3.42;65.28;99074.34;226332;1253;22574;-77
2024/03/18 08:54:18;;;;;;;3.40;2.30;;;;;;;3.56;65.10;99073.13;226515;1254;22552;-75
2024/03/18 08:59:19;;;;;;;3.50;2.30;;;;;;;3.64;64.99;99070.14;226329;1273;25416;-76
2024/03/18 09:04:21;;;;;;;2.20;2.00;;;;;;;3.62;64.41;99073.62;226312;1273;22588;-77
2024/03/18 09:09:25;;;;;;;3.10;1.80;;;;;;;3.52;64.49;99070.51;226463;1256;22554;-77
2024/03/18 09:14:29;;;;;;;1.90;1.70;;;;;;;3.44;64.20;99072.73;226561;1267;24553;-77
2024/03/18 09:19:40;;;;;;;2.70;2.20;;;;;;;3.49;64.40;99068.01;226335;1266;25383;-75
2024/03/18 09:24:42;;;;;;;2.60;2.20;;;;;;;3.50;64.00;99067.21;226413;1260;22594;-77
2024/03/18 09:29:45;;;;;;;2.60;2.00;;;;;;;3.42;63.57;99068.57;226508;1274;22556;-77
2024/03/18 09:34:47;;;;;;;1.90;1.80;;;;;;;3.40;63.63;99071.94;226583;1268;24232;-78
2024/03/18 09:39:49;;;;;;;1.90;1.70;;;;;;;3.42;63.49;99070.88;226500;1267;22685;-78
2024/03/18 09:44:51;;;;;;;2.20;2.00;;;;;;;3.47;63.39;99065.91;226577;1255;25412;-78
2024/03/18 09:49:53;;;;;;;2.30;1.90;;;;;;;3.52;63.24;99063.04;226536;1271;23076;-78
2024/03/18 09:54:56;;;;;;;3.30;2.00;;;;;;;3.59;63.34;99059.79;226605;1271;22561;-77
2024/03/18 09:59:58;;;;;;;2.50;2.10;;;;;;;3.64;63.08;99061.27;226685;1272;23622;-77
2024/03/18 10:05:04;;;;;;;4.10;2.50;;;;;;;3.71;62.93;99055.20;226579;1260;23165;-76
2024/03/18 10:10:17;;;;;;;3.30;2.30;;;;;;;3.80;63.04;99055.05;226464;1266;22654;-77
2024/03/18 10:15:19;;;;;;;2.50;2.30;;;;;;;3.80;62.73;99052.42;226571;1266;22538;-74
2024/03/18 10:20:23;;;;;;;3.40;2.30;;;;;;;3.87;62.49;99048.17;226510;1256;22656;-76
2024/03/18 10:25:26;;;;;;;3.40;2.20;;;;;;;4.02;62.68;99051.55;226621;1271;22534;-76
2024/03/18 10:30:30;;;;;;;3.40;2.00;;;;;;;4.18;62.48;99048.77;226332;1267;22548;-78
2024/03/18 10:35:34;;;;;;;2.60;2.00;;;;;;;4.16;61.97;99046.38;226417;1272;25415;-77
2024/03/18 10:40:40;;;;;;;3.50;2.30;;;;;;;4.12;62.04;99042.62;226364;1275;22545;-77
2024/03/18 10:45:47;;;;;;;2.60;2.40;;;;;;;4.10;62.05;99042.10;226481;1267;22545;-76
2024/03/18 10:50:50;;;;;;;2.70;2.30;;;;;;;4.14;61.90;99040.64;226384;1267;24903;-78
2024/03/18 10:55:52;;;;;;;1.60;1.50;;;;;;;4.25;61.82;99040.16;226593;1275;22566;-74
2024/03/18 11:00:55;;;;;;;2.80;1.90;;;;;;;4.38;61.58;99036.49;226378;1267;22562;-76
2024/03/18 11:05:58;;;;;;;3.50;1.70;;;;;;;4.45;61.08;99032.55;226498;1267;22546;-76
2024/03/18 11:11:00;;;;;;;2.30;2.00;;;;;;;4.51;60.87;99032.09;226637;1267;22525;-76
2024/03/18 11:16:08;;;;;;;2.00;1.80;;;;;;;4.71;61.34;99026.20;226436;1260;22577;-78
2024/03/18 11:21:23;;;;;;;2.50;1.90;;;;;;;4.98;61.41;99018.21;226396;1266;22683;-77
2024/03/18 11:26:25;;;;;;;2.20;1.80;;;;;;;5.23;60.61;99018.77;226365;1270;24229;-77
2024/03/18 11:31:34;;;;;;;2.10;1.70;;;;;;;5.39;60.30;99013.21;227096;1260;22696;-76
2024/03/18 11:36:40;;;;;;;3.00;2.50;;;;;;;5.51;59.76;99010.30;226640;1269;23676;-76
2024/03/18 11:41:44;;;;;;;3.00;2.10;;;;;;;5.60;59.57;99004.14;226504;1252;23023;-76
2024/03/18 11:47:03;;;;;;;2.20;2.00;;;;;;;5.54;59.30;99008.09;226486;1267;22604;-78
2024/03/18 11:52:05;;;;;;;3.00;2.00;;;;;;;5.59;59.59;98999.50;226415;1251;22545;-78
2024/03/18 11:57:11;;;;;;;3.00;2.40;;;;;;;5.66;59.06;98995.67;226409;1263;22615;-80
2024/03/18 12:02:13;;;;;;;3.30;2.80;;;;;;;5.59;58.92;98989.91;226214;1267;22526;-80
2024/03/18 12:07:16;;;;;;;3.30;2.90;;;;;;;5.50;58.98;98988.70;226621;1267;25053;-80
2024/03/18 12:12:18;;;;;;;5.00;3.30;;;;;;;5.38;58.66;98986.79;227045;1271;22542;-80
2024/03/18 12:17:20;;;;;;;4.20;2.70;;;;;;;5.39;59.14;98987.16;226661;1260;25869;-77
2024/03/18 12:22:25;;;;;;;5.00;3.00;;;;;;;5.29;58.93;98985.57;226392;1274;22564;-78
2024/03/18 12:32:51;;;;;;;2.50;2.30;;;;;;;5.23;58.95;98982.08;226410;1273;22603;-77
2024/03/18 12:37:53;;;;;;;3.10;2.60;;;;;;;5.25;59.18;98974.23;226404;1273;22577;-78
2024/03/18 12:42:56;;;;;;;3.40;2.50;;;;;;;5.26;58.91;98969.20;226160;1273;22567;-80
2024/03/18 12:47:58;;;;;;;5.30;2.40;;;;;;;5.35;59.23;98968.08;226439;1273;22564;-81
2024/03/18 12:53:01;;;;;;;4.20;2.50;;;;;;;5.52;58.66;98965.11;226704;1270;22556;-80
2024/03/18 12:58:05;;;;;;;3.00;2.40;;;;;;;5.64;59.06;98962.55;226423;1259;22579;-79
2024/03/18 13:03:13;;;;;;;6.70;2.60;;;;;;;5.64;58.79;98960.18;226640;1270;22536;-81
2024/03/18 13:08:15;;;;;;;3.10;2.80;;;;;;;5.69;59.03;98959.21;226659;1265;22542;-81
2024/03/18 13:13:29;;;;;;;4.80;3.10;;;;;;;5.78;58.58;98955.71;226808;1274;22549;-81
2024/03/18 13:18:31;;;;;;;3.30;2.90;;;;;;;5.79;58.48;98959.64;226744;1267;22924;-80
2024/03/18 13:23:33;;;;;;;3.40;2.90;;;;;;;5.90;58.33;98954.14;226683;1261;25088;-79
2024/03/18 13:28:34;;;;;;;3.10;2.80;;;;;;;6.23;58.64;98951.65;226550;1274;22534;-79
2024/03/18 13:33:36;;;;;;;2.70;2.50;;;;;;;6.55;58.24;98947.88;226718;1267;23071;-80
2024/03/18 13:38:38;;;;;;;3.40;2.90;;;;;;;6.82;58.00;98947.83;226703;1267;22562;-80
2024/03/18 13:43:43;;;;;;;3.50;3.00;;;;;;;7.00;57.30;98950.30;226778;1267;22539;-80
2024/03/18 13:48:46;;;;;;;3.00;2.70;;;;;;;6.77;56.64;98953.42;226594;1271;22612;-81
2024/03/18 13:53:48;;;;;;;3.10;2.80;;;;;;;6.52;57.18;98951.98;226539;1257;22932;-78
2024/03/18 13:58:50;;;;;;;3.10;2.80;;;;;;;6.34;57.04;98954.40;226631;1273;22568;-79
2024/03/18 14:03:52;;;;;;;3.70;2.80;;;;;;;6.13;57.13;98946.91;226794;1266;23019;-77
2024/03/18 14:08:54;;;;;;;3.10;2.80;;;;;;;6.04;57.23;98945.26;226583;1268;22589;-78
2024/03/18 14:13:56;;;;;;;4.70;3.20;;;;;;;5.88;56.76;98943.02;226593;1254;22559;-77
2024/03/18 14:18:58;;;;;;;4.10;3.00;;;;;;;5.67;57.33;98941.39;226614;1261;23768;-78
2024/03/18 14:24:01;;;;;;;3.80;3.30;;;;;;;5.51;57.81;98938.63;226540;1270;22537;-80
2024/03/18 14:29:02;;;;;;;4.20;3.10;;;;;;;5.46;58.01;98934.45;226661;1271;25342;-77
2024/03/18 14:34:07;;;;;;;4.20;3.60;;;;;;;5.42;57.97;98935.02;226412;1253;22542;-78
2024/03/18 14:39:11;;;;;;;3.80;3.00;;;;;;;5.25;58.26;98931.94;226480;1269;22511;-77
2024/03/18 14:44:13;;;;;;;5.70;5.10;;;;;;;5.22;58.35;98934.55;226164;1267;358849;-77
2024/03/18 14:49:15;;;;;;;6.20;3.60;;;;;;;5.26;58.61;98931.65;226473;1269;22548;-75
2024/03/18 14:54:17;;;;;;;2.80;2.60;;;;;;;5.25;58.55;98926.59;226589;1257;22985;-76
2024/03/18 14:59:19;;;;;;;5.50;4.50;;;;;;;5.30;58.60;98922.61;226420;1269;22513;-77
2024/03/18 15:04:21;;;;;;;3.10;2.70;;;;;;;5.47;58.54;98925.24;226108;1273;25348;-78
2024/03/18 15:09:23;;;;;;;3.50;2.80;;;;;;;5.53;58.30;98919.91;226056;1274;22547;-78
2024/03/18 15:14:24;;;;;;;3.60;2.90;;;;;;;5.52;58.16;98920.39;226461;1272;24430;-77
2024/03/18 15:19:28;;;;;;;4.10;3.70;;;;;;;5.56;58.57;98919.98;226555;1273;22560;-78
2024/03/18 15:24:49;;;;;;;4.40;3.60;;;;;;;5.62;58.34;98920.95;226425;1270;22545;-77
2024/03/18 15:29:51;;;;;;;4.30;3.50;;;;;;;5.57;57.97;98919.94;226759;1272;22544;-78
2024/03/18 15:34:53;;;;;;;3.80;3.40;;;;;;;5.40;57.95;98921.45;226818;1274;22539;-77
2024/03/18 15:39:59;;;;;;;4.00;3.40;;;;;;;5.31;58.74;98926.34;226796;1269;22541;-79
2024/03/18 15:45:02;;;;;;;4.60;3.00;;;;;;;5.19;58.61;98930.15;226977;1274;23025;-78
2024/03/18 15:50:08;;;;;;;3.50;3.20;;;;;;;5.12;58.99;98935.39;226761;1273;22718;-79
2024/03/18 15:55:12;;;;;;;5.30;3.50;;;;;;;5.11;58.80;98942.83;226905;1272;22603;-78
2024/03/18 16:00:18;;;;;;;4.40;3.60;;;;;;;5.00;58.75;98947.70;226809;1272;22581;-78
2024/03/18 16:05:20;;;;;;;4.10;3.10;;;;;;;4.82;58.90;98950.98;226948;1270;22667;-78
2024/03/18 16:10:22;;;;;;;5.00;3.80;;;;;;;4.65;59.09;98955.34;226991;1271;22724;-78
2024/03/18 16:15:24;;;;;;;5.20;3.80;;;;;;;4.48;59.62;98952.69;226851;1273;22619;-78
2024/03/18 16:20:26;;;;;;;6.00;4.00;;;;;;;4.34;60.01;98954.91;226988;1272;22571;-78
2024/03/18 16:25:28;;;;;;;5.40;4.00;;;;;;;4.26;60.06;98960.06;226912;1272;24205;-80
2024/03/18 16:30:34;;;;;;;4.50;3.80;;;;;;;4.17;60.46;98961.58;226984;1267;24950;-80
2024/03/18 16:35:36;;;;;;;5.30;4.00;;;;;;;4.08;60.52;98964.00;226971;1272;22559;-79
2024/03/18 16:40:38;;;;;;;4.70;3.80;;;;;;;4.01;60.78;98970.59;226805;1273;22557;-80
2024/03/18 16:45:42;;;;;;;5.40;4.40;;;;;;;3.95;61.15;98971.85;226783;1272;22564;-80
2024/03/18 16:50:44;;;;;;;7.30;5.10;;;;;;;3.88;61.19;98971.45;226785;1273;22530;-79
2024/03/18 16:55:45;;;;;;;6.50;5.20;;;;;;;3.78;61.60;98978.08;226965;1272;22533;-79
2024/03/18 17:00:47;;;;;;;6.00;4.60;;;;;;;3.68;61.65;98976.55;226932;1270;22525;-80
2024/03/18 17:05:49;;;;;;;7.10;4.70;;;;;;;3.62;61.73;98977.86;226984;1274;22542;-80
2024/03/18 17:10:51;;;;;;;6.80;4.10;;;;;;;3.54;62.01;98978.77;226966;1261;22545;-80
2024/03/18 17:15:53;;;;;;;5.90;4.50;;;;;;;3.47;62.30;98982.17;226929;1271;23010;-80
2024/03/18 17:20:55;;;;;;;6.40;4.60;;;;;;;3.43;62.46;98984.95;226923;1270;24296;-80
2024/03/18 17:25:57;;;;;;;6.50;4.60;;;;;;;3.38;62.42;98989.10;226819;1256;22595;-81
2024/03/18 17:30:59;;;;;;;7.70;5.60;;;;;;;3.31;62.83;98993.35;226853;1274;22787;-81
2024/03/18 17:36:05;;;;;;;7.10;5.20;;;;;;;3.29;63.04;98996.02;226904;1274;22565;-81
2024/03/18 17:41:25;;;;;;;9.00;5.40;;;;;;;3.24;63.02;99004.13;226937;1274;23302;-80
2024/03/18 17:46:29;;;;;;;8.30;5.90;;;;;;;3.16;63.14;99005.27;226888;1274;25349;-80
2024/03/18 17:51:30;;;;;;;7.70;5.90;;;;;;;3.10;63.41;99009.27;226935;1272;22539;-81
2024/03/18 17:56:33;;;;;;;10.20;7.10;;;;;;;3.06;63.59;99011.24;226968;1270;22566;-81
2024/03/18 18:01:35;;;;;;;10.10;7.70;;;;;;;3.03;63.69;99016.38;226866;1269;24197;-81
2024/03/18 18:06:37;;;;;;;10.70;6.90;;;;;;;3.00;63.99;99018.86;226896;1270;22550;-81
2024/03/18 18:11:39;;;;;;;11.40;6.60;;;;;;;2.98;64.13;99023.93;226893;1274;22533;-80
2024/03/18 18:16:41;;;;;;;9.60;6.50;;;;;;;2.98;64.21;99019.59;226721;1272;22569;-81
2024/03/18 18:21:43;;;;;;;9.10;6.50;;;;;;;2.98;64.22;99027.10;226926;1273;22571;-80
2024/03/18 18:26:45;;;;;;;11.80;7.00;;;;;;;2.97;64.47;99029.77;226923;1272;22573;-80
2024/03/18 18:31:47;;;;;;;11.70;6.60;;;;;;;2.97;64.68;99029.21;226920;1274;26310;-80
2024/03/18 18:36:52;;;;;;;12.50;7.70;;;;;;;2.97;64.80;99031.40;226897;1268;23107;-80
2024/03/18 18:41:53;;;;;;;13.90;9.30;;;;;;;2.98;65.06;99032.84;226887;1270;22526;-81
2024/03/18 18:46:55;;;;;;;13.40;8.70;;;;;;;3.00;65.29;99039.58;226914;1271;23013;-80
2024/03/18 18:51:57;;;;;;;13.10;8.60;;;;;;;3.06;65.53;99037.35;226785;1274;22550;-80
2024/03/18 18:56:59;;;;;;;12.50;8.00;;;;;;;3.08;65.47;99038.42;226914;1271;22565;-80
2024/03/18 19:02:01;;;;;;;16.60;10.00;;;;;;;3.07;65.60;99042.30;226965;1273;24256;-80
2024/03/18 19:07:04;;;;;;;13.80;10.00;;;;;;;3.07;65.71;99046.67;226842;1272;22570;-80
2024/03/18 19:12:06;;;;;;;17.40;11.80;;;;;;;3.09;66.11;99052.03;226951;1271;22527;-80
2024/03/18 19:17:09;;;;;;;15.70;11.70;;;;;;;3.10;66.06;99059.46;226941;1273;22601;-80
2024/03/18 19:22:11;;;;;;;18.00;12.00;;;;;;;3.05;66.23;99064.18;226997;1268;22554;-80
2024/03/18 19:27:13;;;;;;;18.10;13.20;;;;;;;3.00;66.37;99069.70;226843;1274;22538;-80
2024/03/18 19:32:16;;;;;;;17.50;12.10;;;;;;;2.97;66.68;99070.18;226812;1272;22549;-80
2024/03/18 19:37:17;;;;;;;16.30;12.20;;;;;;;2.91;66.71;99074.36;226844;1269;22548;-80
2024/03/18 19:42:23;;;;;;;17.20;12.70;;;;;;;2.87;66.81;99078.16;226884;1274;22607;-80
2024/03/18 19:47:24;;;;;;;18.70;12.80;;;;;;;2.83;66.92;99078.81;226936;1273;22538;-80
2024/03/18 19:52:27;;;;;;;21.00;13.60;;;;;;;2.75;66.98;99081.06;226894;1271;26201;-80
2024/03/18 19:57:29;;;;;;;22.70;14.40;;;;;;;2.70;67.19;99083.05;226660;1274;22614;-80
2024/03/18 20:02:31;;;;;;;18.50;12.10;;;;;;;2.68;67.36;99081.13;226931;1272;22574;-80
2024/03/18 20:07:33;;;;;;;22.00;15.10;;;;;;;2.66;67.43;99088.00;226915;1271;24269;-80
2024/03/18 20:12:42;;;;;;;21.70;15.60;;;;;;;2.63;67.62;99092.91;226893;1270;22575;-80
2024/03/18 20:17:45;;;;;;;22.60;15.80;;;;;;;2.63;67.87;99100.25;226937;1257;22624;-81
2024/03/18 20:22:46;;;;;;;20.70;15.10;;;;;;;2.62;67.95;99100.48;226766;1269;22773;-80
2024/03/18 20:27:48;;;;;;;25.00;17.90;;;;;;;2.58;67.96;99101.00;226915;1271;22552;-80
2024/03/18 20:32:54;;;;;;;22.90;15.90;;;;;;;2.58;68.07;99105.55;226869;1274;24779;-80
2024/03/18 20:37:55;;;;;;;28.30;17.40;;;;;;;2.58;68.18;99106.77;226992;1271;22647;-80
2024/03/18 20:42:57;;;;;;;25.40;16.70;;;;;;;2.57;68.39;99103.04;226913;1271;23550;-80
2024/03/18 20:48:00;;;;;;;28.10;18.90;;;;;;;2.58;68.46;99103.77;226876;1273;22551;-80
2024/03/18 20:53:03;;;;;;;21.40;14.40;;;;;;;2.60;68.55;99101.39;227002;1273;22537;-80
2024/03/18 20:58:04;;;;;;;24.80;17.50;;;;;;;2.59;68.89;99099.38;226877;1270;22542;-79
2024/03/18 21:03:06;;;;;;;27.90;17.50;;;;;;;2.57;68.74;99103.02;226934;1274;22534;-79
2024/03/18 21:08:08;;;;;;;29.30;19.50;;;;;;;2.55;68.87;99106.77;226855;1272;24259;-79
2024/03/18 21:13:10;;;;;;;26.20;18.10;;;;;;;2.54;69.15;99104.80;226645;1274;22602;-79
2024/03/18 21:18:12;;;;;;;26.60;17.90;;;;;;;2.52;69.37;99111.28;226958;1271;22559;-78
2024/03/18 21:23:14;;;;;;;26.50;16.40;;;;;;;2.47;69.32;99111.43;226796;1272;22542;-80
2024/03/18 21:28:16;;;;;;;25.90;15.30;;;;;;;2.44;69.38;99111.70;226855;1273;22577;-79
2024/03/18 21:33:18;;;;;;;30.00;18.40;;;;;;;2.40;69.50;99112.41;226976;1269;22565;-80
2024/03/18 21:38:20;;;;;;;26.40;17.10;;;;;;;2.39;69.77;99113.55;226920;1272;23386;-80
2024/03/18 21:43:22;;;;;;;26.20;17.00;;;;;;;2.39;69.91;99109.50;226750;1274;22541;-79
2024/03/18 21:48:23;;;;;;;28.20;18.40;;;;;;;2.38;69.93;99113.42;226691;1274;22704;-80
2024/03/18 21:53:25;;;;;;;29.80;18.60;;;;;;;2.39;70.23;99110.17;226895;1274;23605;-80
2024/03/18 21:58:27;;;;;;;29.00;18.70;;;;;;;2.41;70.20;99110.42;226937;1274;22595;-80
2024/03/18 22:03:29;;;;;;;32.20;19.80;;;;;;;2.43;70.33;99113.54;227011;1270;22544;-80
2024/03/18 22:08:38;;;;;;;30.80;17.80;;;;;;;2.43;70.28;99110.23;226852;1274;22581;-79
2024/03/18 22:13:42;;;;;;;33.20;19.50;;;;;;;2.44;70.29;99111.73;226841;1271;22531;-79
2024/03/18 22:18:44;;;;;;;23.20;15.20;;;;;;;2.45;70.33;99117.40;227021;1271;23123;-79
2024/03/18 22:23:47;;;;;;;30.50;18.40;;;;;;;2.43;70.35;99116.69;226984;1272;22619;-78
2024/03/18 22:28:49;;;;;;;31.00;18.70;;;;;;;2.40;70.26;99121.81;226991;1274;22543;-79
2024/03/18 22:33:51;;;;;;;29.50;18.00;;;;;;;2.36;70.42;99122.84;226915;1271;25234;-79
2024/03/18 22:38:53;;;;;;;29.20;17.90;;;;;;;2.32;70.52;99124.39;226950;1272;24240;-80
2024/03/18 22:43:59;;;;;;;31.60;17.40;;;;;;;2.27;70.65;99123.45;226913;1274;22546;-80
2024/03/18 22:49:01;;;;;;;24.50;15.40;;;;;;;2.21;70.60;99125.34;226951;1272;22538;-79
2024/03/18 22:54:03;;;;;;;30.30;17.30;;;;;;;2.16;70.68;99126.75;226974;1273;22542;-79
2024/03/18 22:59:05;;;;;;;27.20;15.10;;;;;;;2.13;70.90;99125.91;226986;1271;23040;-79
2024/03/18 23:04:07;;;;;;;32.50;18.00;;;;;;;2.12;70.91;99135.96;227008;1256;22539;-79
2024/03/18 23:09:11;;;;;;;30.00;17.10;;;;;;;2.10;71.06;99135.23;226878;1272;23274;-79
2024/03/18 23:14:13;;;;;;;22.10;15.60;;;;;;;2.08;71.17;99135.93;226780;1271;24229;-79
2024/03/18 23:19:16;;;;;;;22.80;14.80;;;;;;;2.07;71.16;99141.53;226884;1274;22547;-79
2024/03/18 23:24:18;;;;;;;18.80;13.00;;;;;;;2.09;71.42;99146.46;226799;1274;22542;-79
2024/03/18 23:29:20;;;;;;;17.50;12.50;;;;;;;2.08;71.40;99148.61;226882;1274;22536;-80
2024/03/18 23:34:22;;;;;;;17.30;11.70;;;;;;;2.04;71.33;99151.69;226968;1273;22550;-79
2024/03/18 23:39:24;;;;;;;15.00;11.20;;;;;;;2.04;71.35;99153.66;227029;1272;22651;-79